createdAt,value
2023-04-14T00:05:59.693Z,994.03
2023-04-14T00:16:05.969Z,994.02
2023-04-14T00:26:11.885Z,994.06
2023-04-14T00:36:17.975Z,994.06
2023-04-14T00:46:24.033Z,994.12
2023-04-14T00:56:30.191Z,994.23
2023-04-14T01:06:36.526Z,994.27
2023-04-14T01:16:42.673Z,994.20
2023-04-14T01:26:49.283Z,994.22
2023-04-14T01:36:55.350Z,994.32
2023-04-14T01:47:01.905Z,994.48
2023-04-14T01:57:08.092Z,994.48
2023-04-14T02:07:14.003Z,994.51
2023-04-14T02:17:19.822Z,994.44
2023-04-14T02:27:26.223Z,994.32
2023-04-14T02:37:32.729Z,994.31
2023-04-14T02:47:39.287Z,994.21
2023-04-14T02:57:45.843Z,994.30
2023-04-14T03:07:52.034Z,994.35
2023-04-14T03:17:58.650Z,994.33
2023-04-14T03:28:05.318Z,994.39
2023-04-14T03:38:12.207Z,994.38
2023-04-14T03:48:18.528Z,994.43
2023-04-14T03:58:24.971Z,994.39
2023-04-14T04:08:31.443Z,994.29
2023-04-14T04:18:39.506Z,994.29
2023-04-14T04:28:45.646Z,994.36
2023-04-14T04:38:51.888Z,994.43
2023-04-14T04:48:58.008Z,994.55
2023-04-14T04:59:04.516Z,994.56
2023-04-14T05:09:10.781Z,994.51
2023-04-14T05:19:16.871Z,994.40
2023-04-14T05:29:23.494Z,994.35
2023-04-14T05:39:29.703Z,994.35
2023-04-14T05:49:35.994Z,994.44
2023-04-14T05:59:42.458Z,994.39
2023-04-14T06:09:48.100Z,994.44
2023-04-14T06:19:54.333Z,994.40
2023-04-14T06:30:00.327Z,994.36
2023-04-14T06:40:06.383Z,994.39
2023-04-14T06:50:12.893Z,994.37
2023-04-14T07:00:19.149Z,994.15
2023-04-14T07:10:25.487Z,994.16
2023-04-14T07:20:32.021Z,994.20
2023-04-14T07:30:38.564Z,994.34
2023-04-14T07:40:44.872Z,994.38
2023-04-14T07:50:53.078Z,994.49
2023-04-14T08:00:59.764Z,994.29
2023-04-14T08:11:06.224Z,994.25
2023-04-14T08:21:12.411Z,994.17
2023-04-14T08:31:18.203Z,994.34
2023-04-14T08:41:24.089Z,994.25
2023-04-14T08:51:29.874Z,994.17
2023-04-14T09:01:36.161Z,994.34
2023-04-14T09:11:42.548Z,994.22
2023-04-14T09:21:52.433Z,994.22
2023-04-14T09:31:58.402Z,994.32
2023-04-14T09:42:04.213Z,994.31
2023-04-14T09:52:09.728Z,994.27
2023-04-14T10:02:15.987Z,994.30
2023-04-14T10:12:23.458Z,994.24
2023-04-14T10:22:29.599Z,994.26
2023-04-14T10:32:35.913Z,994.18
2023-04-14T10:42:42.366Z,994.27
2023-04-14T10:52:48.582Z,994.13
2023-04-14T11:02:54.908Z,993.99
2023-04-14T11:13:03.108Z,993.63
2023-04-14T11:23:08.844Z,993.56
2023-04-14T11:33:15.453Z,993.53
2023-04-14T11:43:22.894Z,993.35
2023-04-14T11:53:29.034Z,993.26
2023-04-14T12:03:35.227Z,993.32
2023-04-14T12:13:41.418Z,993.24
2023-04-14T12:23:47.303Z,993.15
2023-04-14T12:33:54.868Z,993.06
2023-04-14T12:44:01.162Z,992.97
2023-04-14T12:54:07.471Z,992.98
2023-04-14T13:04:13.886Z,993.01
2023-04-14T13:14:20.209Z,992.95
2023-04-14T13:24:26.486Z,992.95
2023-04-14T13:34:32.384Z,992.84
2023-04-14T13:44:38.567Z,992.75
2023-04-14T13:54:44.812Z,992.71
2023-04-14T14:04:50.956Z,992.64
2023-04-14T14:14:57.370Z,992.62
2023-04-14T14:25:18.374Z,992.60
2023-04-14T14:35:15.282Z,992.49
2023-04-14T14:45:30.606Z,992.41
2023-04-14T14:55:33.154Z,992.35
2023-04-14T15:05:41.140Z,992.28
2023-04-14T15:15:47.646Z,992.44
2023-04-14T15:25:53.572Z,992.52
2023-04-14T15:35:59.774Z,992.64
2023-04-14T15:46:05.740Z,992.69
2023-04-14T15:56:12.040Z,992.73
2023-04-14T16:06:18.259Z,992.66
2023-04-14T16:16:25.273Z,992.69
2023-04-14T16:26:32.088Z,992.75
2023-04-14T16:36:39.242Z,992.80
2023-04-14T16:46:45.639Z,992.87
2023-04-14T16:56:51.888Z,992.94
2023-04-14T17:06:58.779Z,992.85
2023-04-14T17:17:05.881Z,992.88
2023-04-14T17:27:14.434Z,992.88
2023-04-14T17:37:20.895Z,992.93
2023-04-14T17:47:28.014Z,992.94
2023-04-14T17:57:34.364Z,992.85
2023-04-14T18:07:41.328Z,992.80
2023-04-14T18:17:47.533Z,992.95
2023-04-14T18:38:02.906Z,993.14
2023-04-14T18:48:09.757Z,993.17
2023-04-14T18:58:16.836Z,993.18
2023-04-14T19:08:23.409Z,993.24
2023-04-14T19:18:30.300Z,993.28
2023-04-14T19:28:36.507Z,993.32
2023-04-14T19:38:43.647Z,993.29
2023-04-14T19:48:48.519Z,993.33
2023-04-14T19:58:54.855Z,993.15
2023-04-14T20:09:01.145Z,993.16
2023-04-14T20:19:08.587Z,993.09
2023-04-14T20:29:15.526Z,993.08
2023-04-14T20:39:22.410Z,992.93
2023-04-14T20:49:29.601Z,992.88
2023-04-14T20:59:38.643Z,992.93
2023-04-14T21:09:45.588Z,992.87
2023-04-14T21:19:52.502Z,992.82
2023-04-14T21:29:59.249Z,992.95
2023-04-14T21:40:06.304Z,992.95
2023-04-14T21:50:13.350Z,992.87
2023-04-14T22:00:20.308Z,992.76
2023-04-14T22:10:26.845Z,992.69
2023-04-14T22:20:33.713Z,992.69
2023-04-14T22:30:40.070Z,992.68
2023-04-14T22:40:46.898Z,992.67
2023-04-14T22:50:53.491Z,992.66
2023-04-14T23:01:04.456Z,992.61
2023-04-14T23:11:11.526Z,992.57
2023-04-14T23:21:18.176Z,992.51
2023-04-14T23:31:24.513Z,992.51
2023-04-14T23:41:31.500Z,992.42
2023-04-14T23:51:38.224Z,992.28
